createdAt,value
2018-03-26T00:00:20.232Z,47.62
2018-03-26T00:02:47.744Z,57.20
2018-03-26T00:05:15.370Z,48.08
2018-03-26T00:07:43.866Z,42.08
2018-03-26T00:10:11.384Z,46.25
2018-03-26T00:12:39.770Z,55.03
2018-03-26T00:15:07.291Z,56.15
2018-03-26T00:17:35.001Z,46.78
2018-03-26T00:20:02.528Z,43.63
2018-03-26T00:22:30.035Z,48.25
2018-03-26T00:24:57.569Z,48.75
2018-03-26T00:27:25.997Z,55.20
2018-03-26T00:29:53.557Z,53.63
2018-03-26T00:32:21.078Z,48.67
2018-03-26T00:34:48.618Z,39.15
2018-03-26T00:37:16.161Z,50.97
2018-03-26T00:39:43.681Z,44.80
2018-03-26T00:42:11.645Z,47.03
2018-03-26T00:44:39.164Z,46.63
2018-03-26T00:47:06.966Z,53.60
2018-03-26T00:49:34.506Z,46.80
2018-03-26T00:52:02.018Z,50.85
2018-03-26T00:54:29.719Z,49.88
2018-03-26T00:56:57.274Z,52.83
2018-03-26T00:59:24.758Z,59.83
2018-03-26T01:01:52.297Z,42.28
2018-03-26T01:04:19.809Z,52.92
2018-03-26T01:06:47.358Z,49.35
2018-03-26T01:09:14.866Z,52.47
2018-03-26T01:11:42.381Z,54.72
2018-03-26T01:14:09.922Z,51.58
2018-03-26T01:16:37.444Z,47.47
2018-03-26T01:19:05.009Z,49.55
2018-03-26T01:21:32.693Z,53.70
2018-03-26T01:24:00.241Z,42.90
2018-03-26T01:26:27.796Z,51.92
2018-03-26T01:28:55.320Z,62.62
2018-03-26T01:31:23.101Z,53.75
2018-03-26T01:33:50.628Z,51.78
2018-03-26T01:36:18.138Z,50.65
2018-03-26T01:38:45.680Z,51.63
2018-03-26T01:41:13.193Z,50.40
2018-03-26T01:43:40.742Z,56.78
2018-03-26T01:46:08.266Z,58.92
2018-03-26T01:48:35.788Z,47.55
2018-03-26T01:51:03.338Z,76.22
2018-03-26T01:53:30.850Z,48.58
2018-03-26T01:55:58.597Z,48.92
2018-03-26T01:58:26.114Z,57.17
2018-03-26T02:00:53.624Z,54.65
2018-03-26T02:03:21.166Z,59.33
2018-03-26T02:05:48.678Z,53.38
2018-03-26T02:08:16.405Z,48.83
2018-03-26T02:10:43.914Z,50.12
2018-03-26T02:13:11.427Z,56.53
2018-03-26T02:15:38.980Z,52.25
2018-03-26T02:18:06.505Z,44.22
2018-03-26T02:20:34.299Z,51.10
2018-03-26T02:23:01.809Z,61.67
2018-03-26T02:25:29.329Z,62.85
2018-03-26T02:27:56.866Z,63.13
2018-03-26T02:30:24.378Z,54.67
2018-03-26T02:32:51.942Z,43.55
2018-03-26T02:35:19.457Z,43.20
2018-03-26T02:37:46.969Z,59.05
2018-03-26T02:40:14.508Z,45.72
2018-03-26T02:42:42.017Z,56.08
2018-03-26T02:45:09.691Z,46.35
2018-03-26T02:47:37.231Z,53.38
2018-03-26T02:50:04.742Z,55.42
2018-03-26T02:52:32.285Z,44.20
2018-03-26T02:54:59.802Z,47.88
2018-03-26T02:57:27.583Z,67.50
2018-03-26T02:59:55.106Z,44.45
2018-03-26T03:02:22.620Z,47.33
2018-03-26T03:04:50.162Z,40.80
2018-03-26T03:07:17.682Z,46.03
2018-03-26T03:09:45.237Z,58.15
2018-03-26T03:12:12.746Z,48.47
2018-03-26T03:14:40.720Z,54.30
2018-03-26T03:17:08.261Z,57.45
2018-03-26T03:19:35.787Z,48.38
2018-03-26T03:22:03.514Z,48.08
2018-03-26T03:24:31.033Z,50.95
2018-03-26T03:26:58.545Z,53.78
2018-03-26T03:29:26.086Z,47.50
2018-03-26T03:31:53.606Z,51.72
2018-03-26T03:34:21.273Z,45.92
2018-03-26T03:36:48.792Z,52.97
2018-03-26T03:39:16.314Z,51.88
2018-03-26T03:41:43.860Z,48.65
2018-03-26T03:44:11.373Z,48.15
2018-03-26T03:46:38.925Z,53.75
2018-03-26T03:49:06.456Z,41.17
2018-03-26T03:51:33.985Z,58.50
2018-03-26T03:54:01.523Z,61.50
2018-03-26T03:56:29.035Z,47.35
2018-03-26T03:58:56.785Z,53.70
2018-03-26T04:01:24.294Z,53.30
2018-03-26T04:03:51.804Z,47.00
2018-03-26T04:06:19.341Z,49.17
2018-03-26T04:08:46.866Z,50.70
2018-03-26T04:11:14.670Z,54.15
2018-03-26T04:13:42.181Z,52.92
2018-03-26T04:16:09.702Z,52.45
2018-03-26T04:18:38.005Z,56.80
2018-03-26T04:21:05.524Z,54.28
2018-03-26T04:23:33.195Z,47.45
2018-03-26T04:26:00.727Z,53.90
2018-03-26T04:28:28.242Z,56.80
2018-03-26T04:30:55.782Z,56.50
2018-03-26T04:33:23.298Z,66.07
2018-03-26T04:35:50.949Z,58.30
2018-03-26T04:38:18.461Z,54.50
2018-03-26T04:40:45.992Z,72.97
2018-03-26T04:43:13.528Z,62.47
2018-03-26T04:45:41.039Z,58.87
2018-03-26T04:48:08.610Z,53.30
2018-03-26T04:50:36.125Z,48.53
2018-03-26T04:53:03.637Z,46.33
2018-03-26T04:55:31.174Z,56.50
2018-03-26T04:57:58.682Z,56.25
2018-03-26T05:00:26.485Z,57.85
2018-03-26T05:02:53.993Z,61.65
2018-03-26T05:05:21.518Z,56.30
2018-03-26T05:07:49.056Z,56.40
2018-03-26T05:10:16.619Z,64.43
2018-03-26T05:12:44.169Z,56.60
2018-03-26T05:15:11.701Z,62.40
2018-03-26T05:17:39.222Z,59.42
2018-03-26T05:20:06.769Z,56.35
2018-03-26T05:22:34.285Z,54.42
2018-03-26T05:25:01.956Z,58.10
2018-03-26T05:27:29.489Z,43.20
2018-03-26T05:29:57.003Z,50.12
2018-03-26T05:32:24.729Z,54.33
2018-03-26T05:34:52.245Z,62.62
2018-03-26T05:37:19.797Z,66.55
2018-03-26T05:39:47.306Z,61.60
2018-03-26T05:42:14.853Z,60.75
2018-03-26T05:44:42.459Z,54.45
2018-03-26T05:47:09.974Z,67.97
2018-03-26T05:49:37.604Z,65.10
2018-03-26T05:52:05.173Z,60.60
2018-03-26T05:54:32.647Z,72.03
2018-03-26T05:57:00.190Z,61.50
2018-03-26T05:59:27.701Z,68.68
2018-03-26T06:01:55.683Z,81.75
2018-03-26T06:04:23.193Z,75.20
2018-03-26T06:06:50.714Z,70.10
2018-03-26T06:09:18.258Z,77.60
2018-03-26T06:11:45.765Z,69.00
2018-03-26T06:14:13.318Z,82.40
2018-03-26T06:16:52.617Z,81.40
2018-03-26T06:19:20.681Z,82.57
2018-03-26T06:21:48.649Z,74.10
2018-03-26T06:24:16.156Z,84.28
2018-03-26T06:26:43.696Z,80.72
2018-03-26T06:29:11.210Z,74.32
2018-03-26T06:31:38.859Z,63.70
2018-03-26T06:34:06.393Z,76.45
2018-03-26T06:36:39.617Z,74.90
2018-03-26T06:39:07.136Z,87.43
2018-03-26T06:41:34.657Z,81.63
2018-03-26T06:44:02.273Z,76.90
2018-03-26T06:46:29.748Z,85.75
2018-03-26T06:48:57.517Z,72.28
2018-03-26T06:51:25.030Z,99.37
2018-03-26T06:53:52.552Z,73.95
2018-03-26T06:56:20.089Z,82.82
2018-03-26T06:58:47.610Z,86.87
2018-03-26T07:01:15.297Z,85.03
2018-03-26T07:03:42.813Z,77.40
2018-03-26T07:06:10.323Z,79.95
2018-03-26T07:08:37.857Z,82.20
2018-03-26T07:11:05.467Z,97.93
2018-03-26T07:13:33.027Z,83.12
2018-03-26T07:16:00.538Z,84.97
2018-03-26T07:18:28.059Z,89.32
2018-03-26T07:20:55.682Z,86.15
2018-03-26T07:23:23.174Z,88.07
2018-03-26T07:25:50.733Z,90.90
2018-03-26T07:28:18.261Z,87.53
2018-03-26T07:30:45.782Z,88.90
2018-03-26T07:33:13.336Z,75.75
2018-03-26T07:35:40.854Z,81.10
2018-03-26T07:38:08.805Z,84.28
2018-03-26T07:40:36.325Z,84.87
2018-03-26T07:43:03.845Z,85.85
2018-03-26T07:45:31.414Z,72.10
2018-03-26T07:47:58.930Z,82.53
2018-03-26T07:50:26.474Z,74.12
2018-03-26T07:52:53.987Z,75.03
2018-03-26T07:55:21.509Z,79.87
2018-03-26T07:57:49.077Z,83.85
2018-03-26T08:00:16.652Z,80.97
2018-03-26T08:02:44.404Z,71.60
2018-03-26T08:05:11.941Z,78.65
2018-03-26T08:07:39.457Z,92.45
2018-03-26T08:10:07.186Z,79.12
2018-03-26T08:12:34.727Z,87.50
2018-03-26T08:15:02.314Z,78.45
2018-03-26T08:17:29.813Z,76.90
2018-03-26T08:19:57.331Z,75.40
2018-03-26T08:22:25.813Z,75.55
2018-03-26T08:24:53.889Z,83.65
2018-03-26T08:27:22.161Z,68.55
2018-03-26T08:29:49.706Z,76.65
2018-03-26T08:32:18.197Z,76.00
2018-03-26T08:34:46.171Z,76.00
2018-03-26T08:37:13.702Z,77.97
2018-03-26T08:39:41.579Z,75.12
2018-03-26T08:42:09.155Z,76.00
2018-03-26T08:44:36.719Z,74.47
2018-03-26T08:47:04.261Z,74.40
2018-03-26T08:49:31.783Z,83.25
2018-03-26T08:51:59.374Z,80.07
2018-03-26T08:54:27.873Z,82.18
2018-03-26T08:56:55.453Z,87.45
2018-03-26T08:59:23.008Z,77.28
2018-03-26T09:01:50.756Z,68.43
2018-03-26T09:04:19.135Z,90.75
2018-03-26T09:06:46.674Z,81.47
2018-03-26T09:09:14.202Z,81.37
2018-03-26T09:11:42.517Z,74.60
2018-03-26T09:14:11.035Z,74.85
2018-03-26T09:16:38.570Z,69.62
2018-03-26T09:19:06.190Z,73.85
2018-03-26T09:21:33.893Z,88.65
2018-03-26T09:24:01.417Z,75.70
2018-03-26T09:26:29.319Z,70.78
2018-03-26T09:28:56.914Z,73.43
2018-03-26T09:31:24.540Z,75.65
2018-03-26T09:33:52.203Z,75.65
2018-03-26T09:36:19.797Z,77.90
2018-03-26T09:38:48.652Z,82.20
2018-03-26T09:41:16.521Z,80.57
2018-03-26T09:43:44.389Z,82.85
2018-03-26T09:46:12.265Z,73.30
2018-03-26T09:48:40.732Z,75.18
2018-03-26T09:51:08.599Z,78.87
2018-03-26T09:53:36.669Z,80.68
2018-03-26T09:56:04.433Z,75.37
2018-03-26T09:58:32.207Z,71.12
2018-03-26T10:01:03.135Z,74.55
2018-03-26T10:03:30.921Z,72.35
2018-03-26T10:05:58.450Z,83.47
2018-03-26T10:08:26.228Z,70.28
2018-03-26T10:10:53.993Z,65.75
2018-03-26T10:13:21.854Z,80.05
2018-03-26T10:15:49.412Z,68.28
2018-03-26T10:18:16.936Z,78.55
2018-03-26T10:20:44.766Z,79.75
2018-03-26T10:23:12.312Z,78.43
2018-03-26T10:25:39.943Z,80.82
2018-03-26T10:28:08.826Z,78.72
2018-03-26T10:30:36.351Z,75.90
2018-03-26T10:33:03.924Z,85.72
2018-03-26T10:35:31.741Z,77.62
2018-03-26T10:37:59.298Z,78.22
2018-03-26T10:40:26.948Z,79.95
2018-03-26T10:42:54.597Z,76.00
2018-03-26T10:45:22.151Z,80.15
2018-03-26T10:47:49.713Z,73.75
2018-03-26T10:50:17.329Z,81.18
2018-03-26T10:52:45.262Z,77.85
2018-03-26T10:55:13.104Z,78.15
2018-03-26T10:57:40.672Z,75.72
2018-03-26T11:00:08.198Z,78.15
2018-03-26T11:02:36.115Z,73.03
2018-03-26T11:05:03.734Z,82.82
2018-03-26T11:07:31.625Z,81.65
2018-03-26T11:09:59.302Z,84.95
2018-03-26T11:12:27.255Z,75.32
2018-03-26T11:14:55.142Z,82.53
2018-03-26T11:17:23.209Z,76.43
2018-03-26T11:19:51.179Z,75.43
2018-03-26T11:22:19.319Z,68.35
2018-03-26T11:24:47.629Z,72.12
2018-03-26T11:27:23.055Z,73.60
2018-03-26T11:29:51.349Z,75.25
2018-03-26T11:32:19.254Z,70.37
2018-03-26T11:34:46.832Z,75.75
2018-03-26T11:37:14.642Z,75.28
2018-03-26T11:39:42.562Z,76.32
2018-03-26T11:42:10.892Z,74.50
2018-03-26T11:44:38.853Z,78.23
2018-03-26T11:47:07.234Z,74.30
2018-03-26T11:49:35.213Z,77.60
2018-03-26T11:52:03.479Z,74.03
2018-03-26T11:54:32.338Z,84.23
2018-03-26T11:57:01.059Z,74.97
2018-03-26T11:59:29.154Z,72.57
2018-03-26T12:01:57.731Z,81.87
2018-03-26T12:04:25.664Z,71.93
2018-03-26T12:06:53.947Z,76.20
2018-03-26T12:09:21.820Z,64.70
2018-03-26T12:11:49.882Z,67.30
2018-03-26T12:14:17.864Z,61.73
2018-03-26T12:16:45.833Z,69.90
2018-03-26T12:19:14.154Z,65.40
2018-03-26T12:21:42.077Z,66.83
2018-03-26T12:24:21.922Z,81.20
2018-03-26T12:26:50.016Z,61.77
2018-03-26T12:29:30.229Z,60.07
2018-03-26T12:31:58.262Z,64.40
2018-03-26T12:34:38.038Z,55.83
2018-03-26T12:37:06.752Z,60.07
2018-03-26T12:39:35.724Z,71.63
2018-03-26T12:42:04.780Z,63.60
2018-03-26T12:44:45.406Z,65.50
2018-03-26T12:47:13.792Z,70.07
2018-03-26T12:49:41.714Z,77.87
2018-03-26T12:52:23.342Z,65.40
2018-03-26T12:54:51.104Z,90.73
2018-03-26T12:57:31.005Z,73.53
2018-03-26T12:59:58.924Z,80.93
2018-03-26T13:02:28.292Z,77.90
2018-03-26T13:04:57.115Z,83.07
2018-03-26T13:07:24.994Z,75.37
2018-03-26T13:09:53.365Z,74.60
2018-03-26T13:12:21.838Z,76.47
2018-03-26T13:14:50.286Z,76.60
2018-03-26T13:17:18.185Z,70.60
2018-03-26T13:19:45.934Z,73.33
2018-03-26T13:22:15.388Z,71.07
2018-03-26T13:24:43.760Z,74.53
2018-03-26T13:27:11.599Z,69.73
2018-03-26T13:29:39.225Z,76.90
2018-03-26T13:32:07.175Z,79.80
2018-03-26T13:34:35.814Z,73.27
2018-03-26T13:37:03.781Z,89.60
2018-03-26T13:39:31.544Z,86.73
2018-03-26T13:41:59.540Z,82.40
2018-03-26T13:44:27.482Z,84.78
2018-03-26T13:46:55.555Z,86.93
2018-03-26T13:49:23.422Z,84.85
2018-03-26T13:51:51.287Z,79.85
2018-03-26T13:54:19.665Z,94.55
2018-03-26T13:56:48.863Z,90.07
2018-03-26T13:59:17.036Z,87.82
2018-03-26T14:01:44.659Z,83.75
2018-03-26T14:04:12.566Z,87.32
2018-03-26T14:06:41.005Z,121.00
2018-03-26T14:09:20.791Z,88.10
2018-03-26T14:12:00.272Z,85.62
2018-03-26T14:14:39.565Z,87.20
2018-03-26T14:17:19.617Z,86.47
2018-03-26T14:19:47.307Z,95.75
2018-03-26T14:22:15.131Z,81.93
2018-03-26T14:24:43.830Z,82.00
2018-03-26T14:27:11.609Z,82.37
2018-03-26T14:29:39.720Z,104.68
2018-03-26T14:32:07.431Z,86.47
2018-03-26T14:34:35.606Z,96.20
2018-03-26T14:37:03.258Z,83.03
2018-03-26T14:39:31.234Z,81.07
2018-03-26T14:41:59.203Z,85.22
2018-03-26T14:44:27.895Z,77.00
2018-03-26T14:46:57.003Z,79.93
2018-03-26T14:49:25.057Z,80.18
2018-03-26T14:51:53.038Z,84.05
2018-03-26T14:54:20.999Z,72.05
2018-03-26T14:56:49.085Z,77.32
2018-03-26T14:59:17.444Z,78.20
2018-03-26T15:01:45.412Z,78.43
2018-03-26T15:04:13.586Z,75.87
2018-03-26T15:06:41.458Z,74.62
2018-03-26T15:09:09.343Z,70.32
2018-03-26T15:11:37.596Z,74.15
2018-03-26T15:14:05.564Z,69.05
2018-03-26T15:16:33.637Z,70.57
2018-03-26T15:19:02.218Z,81.37
2018-03-26T15:21:30.047Z,77.82
2018-03-26T15:23:57.910Z,75.10
2018-03-26T15:26:25.614Z,69.62
2018-03-26T15:28:53.583Z,69.32
2018-03-26T15:31:21.655Z,72.30
2018-03-26T15:33:50.344Z,70.72
2018-03-26T15:36:18.898Z,64.85
2018-03-26T15:38:46.804Z,79.28
2018-03-26T15:41:15.206Z,77.37
2018-03-26T15:43:43.163Z,69.80
2018-03-26T15:46:11.823Z,71.50
2018-03-26T15:48:40.202Z,66.12
2018-03-26T15:51:08.723Z,69.55
2018-03-26T15:53:37.575Z,69.72
2018-03-26T15:56:05.468Z,72.62
2018-03-26T15:58:33.327Z,68.25
2018-03-26T16:01:01.462Z,75.82
2018-03-26T16:03:30.782Z,74.65
2018-03-26T16:05:58.658Z,73.75
2018-03-26T16:08:26.590Z,76.25
2018-03-26T16:10:54.687Z,73.65
2018-03-26T16:13:22.963Z,83.35
2018-03-26T16:15:50.829Z,80.18
2018-03-26T16:18:19.002Z,71.60
2018-03-26T16:20:47.289Z,69.35
2018-03-26T16:23:15.250Z,76.55
2018-03-26T16:25:43.652Z,65.62
2018-03-26T16:28:11.411Z,66.28
2018-03-26T16:30:39.155Z,69.62
2018-03-26T16:33:07.022Z,73.25
2018-03-26T16:35:34.952Z,72.70
2018-03-26T16:38:03.685Z,68.00
2018-03-26T16:40:31.544Z,65.47
2018-03-26T16:43:07.805Z,66.05
2018-03-26T16:45:35.674Z,78.03
2018-03-26T16:48:03.325Z,67.97
2018-03-26T16:50:31.815Z,66.95
2018-03-26T16:52:59.717Z,71.00
2018-03-26T16:55:27.856Z,67.47
2018-03-26T16:57:55.637Z,72.85
2018-03-26T17:00:23.998Z,73.40
2018-03-26T17:02:51.966Z,71.12
2018-03-26T17:05:19.781Z,76.45
2018-03-26T17:07:47.878Z,62.90
2018-03-26T17:10:16.361Z,66.97
2018-03-26T17:12:44.150Z,70.00
2018-03-26T17:15:11.917Z,70.15
2018-03-26T17:17:39.986Z,65.30
2018-03-26T17:20:10.201Z,69.05
2018-03-26T17:22:38.892Z,79.07
2018-03-26T17:25:06.964Z,67.47
2018-03-26T17:27:34.831Z,73.62
2018-03-26T17:30:03.209Z,73.57
2018-03-26T17:32:31.077Z,72.07
2018-03-26T17:34:58.841Z,72.22
2018-03-26T17:37:26.697Z,81.20
2018-03-26T17:39:54.573Z,87.72
2018-03-26T17:42:22.337Z,81.15
2018-03-26T17:44:50.203Z,85.87
2018-03-26T17:47:18.290Z,92.53
2018-03-26T17:49:46.139Z,70.85
2018-03-26T17:52:14.520Z,78.50
2018-03-26T17:54:42.718Z,81.32
2018-03-26T17:57:11.484Z,92.80
2018-03-26T17:59:40.168Z,86.93
2018-03-26T18:02:08.651Z,80.72
2018-03-26T18:04:37.540Z,92.72
2018-03-26T18:07:05.919Z,95.62
2018-03-26T18:09:35.171Z,99.13
2018-03-26T18:12:03.086Z,105.10
2018-03-26T18:14:30.951Z,125.32
2018-03-26T18:16:58.840Z,113.45
2018-03-26T18:19:26.684Z,112.95
2018-03-26T18:21:54.754Z,83.12
2018-03-26T18:24:22.622Z,67.32
2018-03-26T18:26:50.459Z,80.70
2018-03-26T18:29:18.867Z,78.70
2018-03-26T18:31:47.655Z,77.87
2018-03-26T18:34:15.521Z,79.75
2018-03-26T18:36:44.104Z,84.57
2018-03-26T18:39:12.382Z,78.78
2018-03-26T18:41:40.557Z,85.93
2018-03-26T18:44:08.422Z,73.30
2018-03-26T18:46:36.714Z,98.80
2018-03-26T18:49:04.669Z,85.65
2018-03-26T18:51:33.124Z,81.00
2018-03-26T18:54:01.721Z,91.85
2018-03-26T18:56:29.699Z,92.75
2018-03-26T18:58:57.465Z,95.38
2018-03-26T19:01:26.273Z,90.10
2018-03-26T19:03:54.324Z,96.32
2018-03-26T19:06:22.252Z,91.75
2018-03-26T19:08:50.364Z,87.53
2018-03-26T19:11:18.288Z,84.93
2018-03-26T19:13:46.198Z,80.62
2018-03-26T19:16:14.270Z,79.75
2018-03-26T19:18:42.140Z,85.62
2018-03-26T19:21:10.211Z,89.07
2018-03-26T19:23:38.195Z,82.47
2018-03-26T19:26:06.251Z,78.68
2018-03-26T19:28:34.116Z,82.60
2018-03-26T19:31:02.598Z,86.45
2018-03-26T19:33:30.464Z,81.65
2018-03-26T19:35:59.250Z,86.20
2018-03-26T19:38:28.040Z,84.65
2018-03-26T19:40:56.826Z,81.85
2018-03-26T19:43:25.206Z,91.95
2018-03-26T19:45:53.421Z,88.62
2018-03-26T19:48:21.655Z,87.55
2018-03-26T19:50:49.523Z,91.75
2018-03-26T19:53:17.388Z,85.87
2018-03-26T19:55:45.357Z,85.28
2018-03-26T19:58:13.270Z,75.45
2018-03-26T20:00:42.012Z,93.40
2018-03-26T20:03:09.981Z,81.80
2018-03-26T20:05:40.613Z,89.55
2018-03-26T20:08:08.600Z,87.12
2018-03-26T20:10:36.758Z,78.65
2018-03-26T20:13:05.235Z,86.70
2018-03-26T20:15:34.129Z,92.30
2018-03-26T20:18:01.992Z,93.25
2018-03-26T20:20:30.269Z,83.43
2018-03-26T20:22:58.238Z,86.87
2018-03-26T20:25:27.389Z,94.37
2018-03-26T20:27:55.909Z,82.65
2018-03-26T20:30:25.012Z,94.20
2018-03-26T20:32:52.981Z,87.95
2018-03-26T20:35:20.852Z,88.78
2018-03-26T20:37:49.021Z,100.62
2018-03-26T20:40:17.092Z,90.95
2018-03-26T20:42:44.930Z,101.90
2018-03-26T20:45:13.851Z,97.25
2018-03-26T20:47:41.694Z,84.68
2018-03-26T20:50:09.787Z,106.63
2018-03-26T20:52:37.655Z,97.95
2018-03-26T20:55:05.641Z,100.65
2018-03-26T20:57:33.432Z,100.53
2018-03-26T21:00:01.256Z,105.28
2018-03-26T21:02:29.426Z,98.65
2018-03-26T21:04:57.187Z,106.32
2018-03-26T21:07:25.365Z,112.47
2018-03-26T21:09:53.334Z,97.72
2018-03-26T21:12:22.082Z,92.80
2018-03-26T21:14:50.194Z,102.18
2018-03-26T21:17:18.061Z,108.57
2018-03-26T21:19:45.926Z,104.20
2018-03-26T21:22:13.848Z,108.78
2018-03-26T21:24:41.761Z,100.20
2018-03-26T21:27:09.887Z,100.85
2018-03-26T21:29:38.419Z,91.57
2018-03-26T21:32:06.396Z,89.78
2018-03-26T21:34:34.286Z,95.12
2018-03-26T21:37:02.242Z,97.05
2018-03-26T21:39:30.601Z,99.28
2018-03-26T21:41:58.382Z,108.95
2018-03-26T21:44:26.128Z,110.28
2018-03-26T21:46:54.008Z,105.15
2018-03-26T21:49:21.860Z,107.90
2018-03-26T21:51:50.649Z,111.85
2018-03-26T21:54:18.416Z,101.57
2018-03-26T21:56:46.381Z,105.15
2018-03-26T21:59:14.356Z,119.70
2018-03-26T22:01:42.120Z,106.10
2018-03-26T22:04:10.596Z,101.53
2018-03-26T22:06:38.463Z,102.32
2018-03-26T22:09:06.329Z,105.60
2018-03-26T22:11:33.964Z,108.15
2018-03-26T22:14:01.602Z,108.55
2018-03-26T22:16:29.181Z,99.15
2018-03-26T22:18:57.367Z,107.25
2018-03-26T22:21:25.132Z,115.45
2018-03-26T22:23:53.693Z,104.63
2018-03-26T22:26:21.497Z,101.70
2018-03-26T22:28:49.237Z,123.13
2018-03-26T22:31:16.809Z,112.25
2018-03-26T22:33:44.377Z,113.00
2018-03-26T22:36:11.920Z,116.15
2018-03-26T22:38:40.234Z,127.68
2018-03-26T22:41:08.074Z,129.75
2018-03-26T22:43:35.616Z,125.78
2018-03-26T22:46:03.138Z,115.90
2018-03-26T22:48:30.693Z,143.57
2018-03-26T22:50:58.325Z,144.15
2018-03-26T22:53:26.186Z,138.57
2018-03-26T22:55:53.755Z,133.55
2018-03-26T22:58:21.305Z,152.00
2018-03-26T23:00:48.849Z,139.37
2018-03-26T23:03:16.379Z,141.93
2018-03-26T23:05:44.290Z,142.30
2018-03-26T23:08:11.825Z,148.25
2018-03-26T23:10:39.338Z,149.35
2018-03-26T23:13:07.046Z,139.45
2018-03-26T23:15:34.569Z,141.98
2018-03-26T23:18:02.149Z,161.37
2018-03-26T23:20:29.742Z,161.75
2018-03-26T23:22:57.270Z,166.10
2018-03-26T23:25:24.787Z,151.35
2018-03-26T23:27:52.338Z,161.25
2018-03-26T23:30:19.857Z,147.00
2018-03-26T23:32:47.365Z,156.90
2018-03-26T23:35:14.939Z,155.32
2018-03-26T23:37:42.465Z,160.95
2018-03-26T23:40:09.981Z,167.20
2018-03-26T23:42:37.678Z,169.23
2018-03-26T23:45:05.199Z,159.07
2018-03-26T23:47:32.713Z,167.32
2018-03-26T23:50:00.433Z,165.77
2018-03-26T23:52:28.018Z,168.32
2018-03-26T23:54:55.574Z,162.30
2018-03-26T23:57:23.125Z,173.10
2018-03-26T23:59:50.654Z,165.85
